createdAt,value
2019-02-25T00:01:11.679Z,2.90
2019-02-25T00:03:59.553Z,3.20
2019-02-25T00:06:51.132Z,2.87
2019-02-25T00:09:55.281Z,3.10
2019-02-25T00:12:44.099Z,3.30
2019-02-25T00:15:51.183Z,2.87
2019-02-25T00:18:36.983Z,3.30
2019-02-25T00:21:17.891Z,3.30
2019-02-25T00:24:25.036Z,3.20
2019-02-25T00:27:01.994Z,3.27
2019-02-25T00:29:50.933Z,3.43
2019-02-25T00:32:47.429Z,3.80
2019-02-25T00:35:34.074Z,3.30
2019-02-25T00:38:17.347Z,3.87
2019-02-25T00:41:09.090Z,3.33
2019-02-25T00:43:52.887Z,3.73
2019-02-25T00:46:26.843Z,3.57
2019-02-25T00:49:34.687Z,3.60
2019-02-25T00:52:22.768Z,4.00
2019-02-25T00:54:56.725Z,4.37
2019-02-25T00:57:53.643Z,4.30
2019-02-25T01:03:21.081Z,4.00
2019-02-25T01:05:50.717Z,4.13
2019-02-25T01:08:20.501Z,4.23
2019-02-25T01:10:50.141Z,3.90
2019-02-25T01:13:19.921Z,4.13
2019-02-25T01:15:49.765Z,3.70
2019-02-25T01:18:19.470Z,4.30
2019-02-25T01:20:49.186Z,4.27
2019-02-25T01:23:18.962Z,4.17
2019-02-25T01:25:48.753Z,4.30
2019-02-25T01:28:18.567Z,3.97
2019-02-25T01:30:49.038Z,3.83
2019-02-25T01:33:18.813Z,4.00
2019-02-25T01:35:48.502Z,3.60
2019-02-25T01:38:18.245Z,3.97
2019-02-25T01:40:48.068Z,3.43
2019-02-25T01:43:17.840Z,3.30
2019-02-25T01:45:47.512Z,3.90
2019-02-25T01:48:17.297Z,3.67
2019-02-25T01:50:46.948Z,3.50
2019-02-25T01:53:16.685Z,3.40
2019-02-25T01:55:46.432Z,3.37
2019-02-25T01:58:16.100Z,3.57
2019-02-25T02:00:45.869Z,2.93
2019-02-25T02:03:15.557Z,2.93
2019-02-25T02:05:45.229Z,2.83
2019-02-25T02:08:14.975Z,2.90
2019-02-25T02:10:44.695Z,2.93
2019-02-25T02:13:14.641Z,2.90
2019-02-25T02:15:44.500Z,2.67
2019-02-25T02:18:14.201Z,2.83
2019-02-25T02:20:43.911Z,2.90
2019-02-25T02:23:13.629Z,2.77
2019-02-25T02:25:43.485Z,3.07
2019-02-25T02:28:13.666Z,2.90
2019-02-25T02:30:43.427Z,3.10
2019-02-25T02:33:14.097Z,2.70
2019-02-25T02:35:43.800Z,2.83
2019-02-25T02:38:15.585Z,3.23
2019-02-25T02:40:47.361Z,3.10
2019-02-25T02:43:17.085Z,2.90
2019-02-25T02:45:53.335Z,2.70
2019-02-25T02:48:30.732Z,2.80
2019-02-25T02:51:00.975Z,2.70
2019-02-25T02:53:30.728Z,2.60
2019-02-25T02:56:00.405Z,2.57
2019-02-25T02:58:30.077Z,2.73
2019-02-25T03:00:59.868Z,2.53
2019-02-25T03:03:29.660Z,2.70
2019-02-25T03:05:59.384Z,2.53
2019-02-25T03:08:29.061Z,2.90
2019-02-25T03:10:59.174Z,2.40
2019-02-25T03:13:28.883Z,2.90
2019-02-25T03:15:58.622Z,2.33
2019-02-25T03:18:28.272Z,3.00
2019-02-25T03:20:58.035Z,3.67
2019-02-25T03:23:27.697Z,2.63
2019-02-25T03:25:57.352Z,2.57
2019-02-25T03:28:27.022Z,3.07
2019-02-25T03:30:56.792Z,3.03
2019-02-25T03:33:30.375Z,2.80
2019-02-25T03:36:00.102Z,2.93
2019-02-25T03:38:29.841Z,3.20
2019-02-25T03:40:59.590Z,2.90
2019-02-25T03:43:29.453Z,2.80
2019-02-25T03:45:59.163Z,2.83
2019-02-25T03:48:29.905Z,2.77
2019-02-25T03:50:59.550Z,3.43
2019-02-25T03:53:29.274Z,2.90
2019-02-25T03:55:59.185Z,3.57
2019-02-25T03:58:29.050Z,3.20
2019-02-25T04:00:58.749Z,2.47
2019-02-25T04:03:58.557Z,3.23
2019-02-25T04:07:01.833Z,2.70
2019-02-25T04:09:46.320Z,3.30
2019-02-25T04:12:52.815Z,2.93
2019-02-25T04:15:38.891Z,2.47
2019-02-25T04:18:36.469Z,2.60
2019-02-25T04:21:30.757Z,2.70
2019-02-25T04:24:31.730Z,2.70
2019-02-25T04:27:17.884Z,2.50
2019-02-25T04:29:47.690Z,2.40
2019-02-25T04:32:18.993Z,3.00
2019-02-25T04:34:53.635Z,3.00
2019-02-25T04:37:29.634Z,3.23
2019-02-25T04:40:23.426Z,2.60
2019-02-25T04:42:56.882Z,3.10
2019-02-25T04:45:43.457Z,3.10
2019-02-25T04:48:13.290Z,2.80
2019-02-25T04:50:43.033Z,3.23
2019-02-25T04:53:12.713Z,3.00
2019-02-25T04:55:42.378Z,3.10
2019-02-25T04:58:12.073Z,2.73
2019-02-25T05:00:41.826Z,2.90
2019-02-25T05:03:11.574Z,2.97
2019-02-25T05:05:41.377Z,3.30
2019-02-25T05:08:11.108Z,3.33
2019-02-25T05:10:40.761Z,3.47
2019-02-25T05:13:10.559Z,3.30
2019-02-25T05:15:40.291Z,3.07
2019-02-25T05:18:10.101Z,3.03
2019-02-25T05:20:39.877Z,3.87
2019-02-25T05:23:09.996Z,2.60
2019-02-25T05:25:39.666Z,3.07
2019-02-25T05:28:09.461Z,3.00
2019-02-25T05:30:39.118Z,3.10
2019-02-25T05:33:08.773Z,3.00
2019-02-25T05:35:38.597Z,3.17
2019-02-25T05:38:08.332Z,2.93
2019-02-25T05:40:38.574Z,3.73
2019-02-25T05:43:08.342Z,3.50
2019-02-25T05:45:38.131Z,3.37
2019-02-25T05:48:07.911Z,3.83
2019-02-25T05:50:37.747Z,3.60
2019-02-25T05:53:07.416Z,3.67
2019-02-25T05:55:37.105Z,3.77
2019-02-25T05:58:06.990Z,3.60
2019-02-25T06:00:37.232Z,3.93
2019-02-25T06:03:07.001Z,4.20
2019-02-25T06:05:36.645Z,3.90
2019-02-25T06:08:06.746Z,4.20
2019-02-25T06:10:36.500Z,4.00
2019-02-25T06:13:06.258Z,3.77
2019-02-25T06:15:36.025Z,4.10
2019-02-25T06:18:05.702Z,4.40
2019-02-25T06:20:35.373Z,4.60
2019-02-25T06:23:05.301Z,3.73
2019-02-25T06:25:36.058Z,4.53
2019-02-25T06:28:05.810Z,4.13
2019-02-25T06:30:35.878Z,3.80
2019-02-25T06:33:05.645Z,4.10
2019-02-25T06:35:35.435Z,3.93
2019-02-25T06:38:05.231Z,3.33
2019-02-25T06:40:34.917Z,4.00
2019-02-25T06:43:04.706Z,3.60
2019-02-25T06:45:34.565Z,3.70
2019-02-25T06:48:04.400Z,4.27
2019-02-25T06:50:34.237Z,3.87
2019-02-25T06:53:03.953Z,4.40
2019-02-25T06:55:33.688Z,4.27
2019-02-25T06:58:03.521Z,4.03
2019-02-25T07:00:33.273Z,4.60
2019-02-25T07:03:03.094Z,5.43
2019-02-25T07:05:54.771Z,4.40
2019-02-25T07:08:43.321Z,4.03
2019-02-25T07:11:30.697Z,4.23
2019-02-25T07:14:09.383Z,3.90
2019-02-25T07:17:04.052Z,4.33
2019-02-25T07:19:40.487Z,4.20
2019-02-25T07:22:47.169Z,4.23
2019-02-25T07:25:44.829Z,4.07
2019-02-25T07:28:31.882Z,4.27
2019-02-25T07:31:26.199Z,4.20
2019-02-25T07:34:17.622Z,3.90
2019-02-25T07:37:02.853Z,3.60
2019-02-25T07:39:45.095Z,4.13
2019-02-25T07:42:20.986Z,4.60
2019-02-25T07:45:06.631Z,4.47
2019-02-25T07:47:52.930Z,4.20
2019-02-25T07:50:35.221Z,4.17
2019-02-25T07:53:29.467Z,3.90
2019-02-25T07:56:16.849Z,4.03
2019-02-25T07:58:52.372Z,4.90
2019-02-25T08:01:43.770Z,4.60
2019-02-25T08:04:23.021Z,4.37
2019-02-25T08:07:05.304Z,4.60
2019-02-25T08:09:54.104Z,4.33
2019-02-25T08:12:45.702Z,4.50
2019-02-25T08:15:27.172Z,4.97
2019-02-25T08:18:06.049Z,3.93
2019-02-25T08:20:46.714Z,4.50
2019-02-25T08:23:38.300Z,4.50
2019-02-25T08:26:24.946Z,4.53
2019-02-25T08:29:11.383Z,4.53
2019-02-25T08:31:47.566Z,4.40
2019-02-25T08:34:42.128Z,4.40
2019-02-25T08:37:41.371Z,4.30
2019-02-25T08:40:56.968Z,3.90
2019-02-25T08:43:44.183Z,4.43
2019-02-25T08:46:27.031Z,3.97
2019-02-25T08:49:03.172Z,4.20
2019-02-25T08:51:32.930Z,4.00
2019-02-25T08:54:02.589Z,4.43
2019-02-25T08:56:32.249Z,3.60
2019-02-25T08:59:01.931Z,4.00
2019-02-25T09:01:31.652Z,4.67
2019-02-25T09:04:01.266Z,4.53
2019-02-25T09:06:31.052Z,4.07
2019-02-25T09:09:01.094Z,4.50
2019-02-25T09:11:30.741Z,4.73
2019-02-25T09:14:00.394Z,4.63
2019-02-25T09:16:30.127Z,3.80
2019-02-25T09:18:59.743Z,4.47
2019-02-25T09:21:31.750Z,4.13
2019-02-25T09:24:00.834Z,4.20
2019-02-25T09:26:30.539Z,4.47
2019-02-25T09:29:00.160Z,4.27
2019-02-25T09:31:29.932Z,4.03
2019-02-25T09:34:00.642Z,4.10
2019-02-25T09:36:30.397Z,4.30
2019-02-25T09:38:59.964Z,4.07
2019-02-25T09:41:30.364Z,4.03
2019-02-25T09:44:00.501Z,4.13
2019-02-25T09:46:30.120Z,4.10
2019-02-25T09:48:59.829Z,3.87
2019-02-25T09:51:29.594Z,3.60
2019-02-25T09:53:59.317Z,3.77
2019-02-25T09:56:29.050Z,3.60
2019-02-25T09:58:58.822Z,3.87
2019-02-25T10:01:28.723Z,3.57
2019-02-25T10:03:58.407Z,3.33
2019-02-25T10:06:28.177Z,3.80
2019-02-25T10:08:57.845Z,4.00
2019-02-25T10:11:27.535Z,3.93
2019-02-25T10:13:57.285Z,3.33
2019-02-25T10:16:26.943Z,3.80
2019-02-25T10:18:56.660Z,3.00
2019-02-25T10:21:26.350Z,3.33
2019-02-25T10:23:56.254Z,3.20
2019-02-25T10:26:26.021Z,3.50
2019-02-25T10:28:55.774Z,3.17
2019-02-25T10:31:25.529Z,3.13
2019-02-25T10:33:55.297Z,3.10
2019-02-25T10:36:25.021Z,3.20
2019-02-25T10:38:54.716Z,3.00
2019-02-25T10:41:26.146Z,3.77
2019-02-25T10:43:55.856Z,3.30
2019-02-25T10:46:25.574Z,3.40
2019-02-25T10:48:57.408Z,3.37
2019-02-25T10:51:26.888Z,3.17
2019-02-25T10:53:56.503Z,3.30
2019-02-25T10:56:51.639Z,3.27
2019-02-25T10:59:21.950Z,3.47
2019-02-25T11:01:51.657Z,3.72
2019-02-25T11:04:22.144Z,3.40
2019-02-25T11:06:52.866Z,3.10
2019-02-25T11:09:45.971Z,3.37
2019-02-25T11:12:15.875Z,3.15
2019-02-25T11:14:45.545Z,2.98
2019-02-25T11:17:16.132Z,2.98
2019-02-25T11:19:46.746Z,3.47
2019-02-25T11:22:16.643Z,3.50
2019-02-25T11:24:47.391Z,3.20
2019-02-25T11:27:17.838Z,3.40
2019-02-25T11:29:48.458Z,3.37
2019-02-25T11:32:19.881Z,3.17
2019-02-25T11:34:49.671Z,3.20
2019-02-25T11:37:21.735Z,3.10
2019-02-25T11:39:52.564Z,3.17
2019-02-25T11:42:22.211Z,3.00
2019-02-25T11:44:52.392Z,2.83
2019-02-25T11:47:23.254Z,2.72
2019-02-25T11:49:53.061Z,2.67
2019-02-25T11:52:22.719Z,3.17
2019-02-25T11:54:52.421Z,2.67
2019-02-25T11:57:22.147Z,2.95
2019-02-25T11:59:51.865Z,2.35
2019-02-25T12:02:25.532Z,2.98
2019-02-25T12:04:53.059Z,2.70
2019-02-25T12:07:22.856Z,2.87
2019-02-25T12:09:52.617Z,2.72
2019-02-25T12:12:22.403Z,3.25
2019-02-25T12:14:52.246Z,3.00
2019-02-25T12:17:21.933Z,2.65
2019-02-25T12:19:51.691Z,2.92
2019-02-25T12:22:21.392Z,2.75
2019-02-25T12:24:51.141Z,2.60
2019-02-25T12:27:20.834Z,2.90
2019-02-25T12:29:50.532Z,2.98
2019-02-25T12:32:20.278Z,2.62
2019-02-25T12:34:49.998Z,2.85
2019-02-25T12:37:19.839Z,2.55
2019-02-25T12:39:49.618Z,2.90
2019-02-25T12:42:19.399Z,3.00
2019-02-25T12:44:49.040Z,3.60
2019-02-25T12:47:18.717Z,2.83
2019-02-25T12:49:48.478Z,2.62
2019-02-25T12:52:18.205Z,3.25
2019-02-25T12:54:47.906Z,3.22
2019-02-25T12:57:17.517Z,2.83
2019-02-25T12:59:47.165Z,2.77
2019-02-25T13:02:16.937Z,3.45
2019-02-25T13:04:47.161Z,3.02
2019-02-25T13:07:16.801Z,3.10
2019-02-25T13:09:46.445Z,2.95
2019-02-25T13:12:16.170Z,2.80
2019-02-25T13:14:45.904Z,2.47
2019-02-25T13:17:15.662Z,2.90
2019-02-25T13:19:45.478Z,3.10
2019-02-25T13:22:15.241Z,3.05
2019-02-25T13:24:44.986Z,3.10
2019-02-25T13:27:14.776Z,3.17
2019-02-25T13:29:44.469Z,3.02
2019-02-25T13:32:16.756Z,3.15
2019-02-25T13:34:46.912Z,2.42
2019-02-25T13:37:16.745Z,2.70
2019-02-25T13:39:46.480Z,2.85
2019-02-25T13:42:16.246Z,3.20
2019-02-25T13:44:46.163Z,3.40
2019-02-25T13:47:15.846Z,2.80
2019-02-25T13:49:46.022Z,2.85
2019-02-25T13:52:15.812Z,2.90
2019-02-25T13:54:45.556Z,2.80
2019-02-25T13:57:15.251Z,2.67
2019-02-25T13:59:45.049Z,2.58
2019-02-25T14:02:14.781Z,3.20
2019-02-25T14:04:44.645Z,2.58
2019-02-25T14:07:15.404Z,3.10
2019-02-25T14:09:45.250Z,3.08
2019-02-25T14:12:15.235Z,3.37
2019-02-25T14:14:44.956Z,3.00
2019-02-25T14:17:15.081Z,2.80
2019-02-25T14:19:44.780Z,4.03
2019-02-25T14:22:16.424Z,3.00
2019-02-25T14:24:46.175Z,2.93
2019-02-25T14:27:17.148Z,3.03
2019-02-25T14:29:48.757Z,3.15
2019-02-25T14:32:18.414Z,2.77
2019-02-25T14:34:48.636Z,3.00
2019-02-25T14:37:21.077Z,2.83
2019-02-25T14:39:53.721Z,2.83
2019-02-25T14:42:23.739Z,2.83
2019-02-25T14:44:54.450Z,3.63
2019-02-25T14:47:31.239Z,3.40
2019-02-25T14:49:58.163Z,3.40
2019-02-25T14:52:29.274Z,3.53
2019-02-25T14:55:00.948Z,2.97
2019-02-25T14:57:31.649Z,3.40
2019-02-25T15:00:02.333Z,2.90
2019-02-25T15:02:32.093Z,3.57
2019-02-25T15:05:01.864Z,3.20
2019-02-25T15:07:32.414Z,3.07
2019-02-25T15:10:02.876Z,3.10
2019-02-25T15:12:34.302Z,3.03
2019-02-25T15:15:06.857Z,3.10
2019-02-25T15:17:36.902Z,3.10
2019-02-25T15:20:06.898Z,3.10
2019-02-25T15:22:38.360Z,3.17
2019-02-25T15:25:10.009Z,2.90
2019-02-25T15:27:39.841Z,2.73
2019-02-25T15:30:12.964Z,2.60
2019-02-25T15:32:54.847Z,2.73
2019-02-25T15:35:14.302Z,2.70
2019-02-25T15:37:46.579Z,2.53
2019-02-25T15:40:18.564Z,2.73
2019-02-25T15:42:49.215Z,2.80
2019-02-25T15:45:19.469Z,2.83
2019-02-25T15:47:50.816Z,2.07
2019-02-25T15:50:21.262Z,2.50
2019-02-25T15:52:51.133Z,2.70
2019-02-25T15:55:21.323Z,2.70
2019-02-25T15:57:52.472Z,2.77
2019-02-25T16:00:25.423Z,3.30
2019-02-25T16:02:57.155Z,3.03
2019-02-25T16:05:29.558Z,3.37
2019-02-25T16:08:00.667Z,3.00
2019-02-25T16:10:30.590Z,2.97
2019-02-25T16:13:02.121Z,2.80
2019-02-25T16:15:32.050Z,2.53
2019-02-25T16:18:02.555Z,3.30
2019-02-25T16:20:33.378Z,3.63
2019-02-25T16:23:07.507Z,3.10
2019-02-25T16:25:36.667Z,3.20
2019-02-25T16:28:07.969Z,3.57
2019-02-25T16:30:39.918Z,3.30
2019-02-25T16:33:10.057Z,3.60
2019-02-25T16:35:41.233Z,3.00
2019-02-25T16:38:12.377Z,3.03
2019-02-25T16:40:42.174Z,3.37
2019-02-25T16:43:12.934Z,3.10
2019-02-25T16:45:45.304Z,3.50
2019-02-25T16:48:14.616Z,3.37
2019-02-25T16:50:46.325Z,3.13
2019-02-25T16:53:17.817Z,3.53
2019-02-25T16:55:49.188Z,3.77
2019-02-25T16:58:18.880Z,3.83
2019-02-25T17:00:48.798Z,4.20
2019-02-25T17:03:18.746Z,3.50
2019-02-25T17:05:50.272Z,3.77
2019-02-25T17:08:20.867Z,3.90
2019-02-25T17:10:51.824Z,4.10
2019-02-25T17:13:22.178Z,3.70
2019-02-25T17:15:51.963Z,4.00
2019-02-25T17:18:21.723Z,4.23
2019-02-25T17:20:51.507Z,4.30
2019-02-25T17:23:22.793Z,4.23
2019-02-25T17:25:52.627Z,4.43
2019-02-25T17:28:22.677Z,4.27
2019-02-25T17:30:53.846Z,4.13
2019-02-25T17:33:26.198Z,4.47
2019-02-25T17:35:56.487Z,4.80
2019-02-25T17:38:26.559Z,4.43
2019-02-25T17:40:57.290Z,4.23
2019-02-25T17:43:28.632Z,4.63
2019-02-25T17:45:58.598Z,4.73
2019-02-25T17:48:30.001Z,5.00
2019-02-25T17:51:01.510Z,5.03
2019-02-25T17:53:32.793Z,4.63
2019-02-25T17:56:02.702Z,5.20
2019-02-25T17:58:32.344Z,5.20
2019-02-25T18:01:03.285Z,4.90
2019-02-25T18:03:33.762Z,5.23
2019-02-25T18:06:05.258Z,4.83
2019-02-25T18:08:35.462Z,4.60
2019-02-25T18:11:06.389Z,5.03
2019-02-25T18:13:36.208Z,4.77
2019-02-25T18:16:05.956Z,4.93
2019-02-25T18:18:39.171Z,4.70
2019-02-25T18:21:09.770Z,5.63
2019-02-25T18:23:39.694Z,5.13
2019-02-25T18:26:09.706Z,5.27
2019-02-25T18:28:39.704Z,5.73
2019-02-25T18:31:11.871Z,5.30
2019-02-25T18:33:43.973Z,5.40
2019-02-25T18:36:13.883Z,5.13
2019-02-25T18:38:44.278Z,5.80
2019-02-25T18:41:15.182Z,6.27
2019-02-25T18:43:45.565Z,6.37
2019-02-25T18:46:16.394Z,6.10
2019-02-25T18:48:46.735Z,5.47
2019-02-25T18:51:17.630Z,6.23
2019-02-25T18:53:47.691Z,6.50
2019-02-25T18:56:18.580Z,6.00
2019-02-25T18:59:07.371Z,6.23
2019-02-25T19:01:28.218Z,6.50
2019-02-25T19:03:59.062Z,6.23
2019-02-25T19:06:47.356Z,6.87
2019-02-25T19:09:22.767Z,6.73
2019-02-25T19:11:53.465Z,6.80
2019-02-25T19:14:24.195Z,6.60
2019-02-25T19:16:55.153Z,6.37
2019-02-25T19:19:25.100Z,6.23
2019-02-25T19:21:56.270Z,7.37
2019-02-25T19:24:46.654Z,7.00
2019-02-25T19:27:32.127Z,7.07
2019-02-25T19:30:03.156Z,7.17
2019-02-25T19:32:32.978Z,6.83
2019-02-25T19:35:04.737Z,7.93
2019-02-25T19:37:37.718Z,7.30
2019-02-25T19:40:13.956Z,6.70
2019-02-25T19:42:40.594Z,7.60
2019-02-25T19:45:11.340Z,6.77
2019-02-25T19:47:43.135Z,7.00
2019-02-25T19:50:19.825Z,7.43
2019-02-25T19:52:49.629Z,7.00
2019-02-25T19:55:20.964Z,6.63
2019-02-25T19:57:51.291Z,7.00
2019-02-25T20:00:25.699Z,7.20
2019-02-25T20:03:05.809Z,7.43
2019-02-25T20:05:30.688Z,6.70
2019-02-25T20:08:02.181Z,7.77
2019-02-25T20:10:32.748Z,6.53
2019-02-25T20:13:05.628Z,7.13
2019-02-25T20:15:37.562Z,7.43
2019-02-25T20:18:07.229Z,7.43
2019-02-25T20:20:38.919Z,6.87
2019-02-25T20:23:08.969Z,6.80
2019-02-25T20:25:42.422Z,6.60
2019-02-25T20:28:11.322Z,6.40
2019-02-25T20:30:42.878Z,7.37
2019-02-25T20:33:12.444Z,6.70
2019-02-25T20:35:45.282Z,6.60
2019-02-25T20:38:13.686Z,6.43
2019-02-25T20:40:47.080Z,7.10
2019-02-25T20:43:17.351Z,7.37
2019-02-25T20:45:48.155Z,7.50
2019-02-25T20:48:17.962Z,6.83
2019-02-25T20:50:47.702Z,7.03
2019-02-25T20:53:17.510Z,6.87
2019-02-25T20:55:48.226Z,6.90
2019-02-25T20:58:20.512Z,6.33
2019-02-25T21:00:50.915Z,6.47
2019-02-25T21:03:21.515Z,6.20
2019-02-25T21:05:52.470Z,6.73
2019-02-25T21:08:23.494Z,7.10
2019-02-25T21:10:53.729Z,6.73
2019-02-25T21:13:25.905Z,6.43
2019-02-25T21:15:54.877Z,6.93
2019-02-25T21:18:26.574Z,6.47
2019-02-25T21:20:56.097Z,6.30
2019-02-25T21:23:25.903Z,7.17
2019-02-25T21:25:57.708Z,6.77
2019-02-25T21:28:29.011Z,7.07
2019-02-25T21:30:58.514Z,6.43
2019-02-25T21:33:30.292Z,6.83
2019-02-25T21:35:59.677Z,6.50
2019-02-25T21:38:30.311Z,6.63
2019-02-25T21:41:00.569Z,6.67
2019-02-25T21:43:30.352Z,6.53
2019-02-25T21:46:01.618Z,6.93
2019-02-25T21:48:32.406Z,5.73
2019-02-25T21:51:04.678Z,6.10
2019-02-25T21:53:34.443Z,6.57
2019-02-25T21:56:04.862Z,6.03
2019-02-25T21:58:35.148Z,5.97
2019-02-25T22:01:07.659Z,5.47
2019-02-25T22:03:41.091Z,5.37
2019-02-25T22:06:08.772Z,6.03
2019-02-25T22:08:38.531Z,6.17
2019-02-25T22:11:12.587Z,5.03
2019-02-25T22:13:39.688Z,6.10
2019-02-25T22:16:09.455Z,5.90
2019-02-25T22:18:39.193Z,5.67
2019-02-25T22:21:09.473Z,5.60
2019-02-25T22:23:40.304Z,5.47
2019-02-25T22:26:10.205Z,5.97
2019-02-25T22:28:39.969Z,5.40
2019-02-25T22:31:10.930Z,6.20
2019-02-25T22:33:40.968Z,5.77
2019-02-25T22:36:10.708Z,5.93
2019-02-25T22:38:40.585Z,5.63
2019-02-25T22:41:10.337Z,5.60
2019-02-25T22:43:43.238Z,5.60
2019-02-25T22:46:11.740Z,5.00
2019-02-25T22:48:43.140Z,5.20
2019-02-25T22:51:13.189Z,5.57
2019-02-25T22:53:42.915Z,5.33
2019-02-25T22:56:13.589Z,6.20
2019-02-25T22:58:44.093Z,6.03
2019-02-25T23:01:17.787Z,5.20
2019-02-25T23:03:47.919Z,5.57
2019-02-25T23:06:19.101Z,5.10
2019-02-25T23:08:51.037Z,5.70
2019-02-25T23:11:22.084Z,5.80
2019-02-25T23:13:52.523Z,5.70
2019-02-25T23:16:25.452Z,5.53
2019-02-25T23:18:55.470Z,5.70
2019-02-25T23:21:28.296Z,5.30
2019-02-25T23:23:58.073Z,5.27
2019-02-25T23:26:27.917Z,5.30
2019-02-25T23:28:58.128Z,5.90
2019-02-25T23:31:30.052Z,5.47
2019-02-25T23:34:00.686Z,5.40
2019-02-25T23:36:30.396Z,5.40
2019-02-25T23:39:01.701Z,5.37
2019-02-25T23:41:34.355Z,5.60
2019-02-25T23:44:03.398Z,5.23
2019-02-25T23:46:34.595Z,5.50
2019-02-25T23:49:04.566Z,5.83
2019-02-25T23:51:34.288Z,5.50
2019-02-25T23:54:04.033Z,5.23
2019-02-25T23:56:33.732Z,6.07
2019-02-25T23:59:03.362Z,5.73
